Time;durP1;ratioP1;P1;durP2;ratioP2;P2;SDS_P1;SDS_P2;PMS_P1;PMS_P2;Temp;Humidity;BMP_temperature;BMP_pressure;BME280_temperature;BME280_humidity;BME280_pressure;Samples;Min_cycle;Max_cycle;Signal;HPM_P1;HPM_P2
2023/07/24 00:00:58;;;;;;;7.97;5.65;;;;;;;24.46;69.47;100251.16;5549724;32;33736;-59
2023/07/24 00:04:01;;;;;;;7.00;5.32;;;;;;;24.37;69.79;100236.94;5548537;32;33675;-59
2023/07/24 00:07:03;;;;;;;7.22;6.07;;;;;;;24.30;70.11;100245.88;5549575;32;33626;-59
2023/07/24 00:10:06;;;;;;;9.60;5.30;;;;;;;24.31;70.05;100238.47;5549573;32;33633;-62
2023/07/24 00:13:08;;;;;;;9.90;5.35;;;;;;;24.26;70.38;100238.78;5549704;32;33926;-62
2023/07/24 00:16:11;;;;;;;7.15;5.25;;;;;;;24.30;70.34;100236.87;5549339;32;34344;-62
2023/07/24 00:19:13;;;;;;;7.95;5.60;;;;;;;24.28;70.64;100241.97;5549611;32;33342;-62
2023/07/24 00:22:15;;;;;;;7.37;5.75;;;;;;;24.20;70.97;100240.28;5549436;32;33769;-62
2023/07/24 00:25:17;;;;;;;8.07;5.97;;;;;;;24.15;71.22;100231.25;5549285;32;34413;-62
2023/07/24 00:28:20;;;;;;;8.20;5.95;;;;;;;24.18;71.31;100234.44;5549267;32;33596;-62
2023/07/24 00:31:22;;;;;;;7.40;5.95;;;;;;;24.19;71.46;100225.81;5549510;32;33670;-62
2023/07/24 00:34:24;;;;;;;7.62;5.40;;;;;;;24.12;71.90;100229.28;5549338;32;34309;-62
2023/07/24 00:37:30;;;;;;;8.30;5.45;;;;;;;24.11;71.92;100224.19;5549100;32;33766;-62
2023/07/24 00:40:33;;;;;;;9.65;5.37;;;;;;;24.08;72.17;100220.25;5549405;32;33623;-62
2023/07/24 00:43:35;;;;;;;9.80;6.20;;;;;;;24.13;72.01;100221.84;5549220;32;33613;-62
2023/07/24 00:46:38;;;;;;;8.38;5.68;;;;;;;24.07;72.27;100215.94;5548893;32;33703;-62
2023/07/24 00:49:40;;;;;;;7.47;6.35;;;;;;;24.05;72.46;100212.78;5549485;32;34291;-62
2023/07/24 00:52:43;;;;;;;8.45;6.30;;;;;;;24.05;72.47;100209.25;5549009;32;33656;-62
2023/07/24 00:55:47;;;;;;;8.15;6.12;;;;;;;24.09;72.55;100204.59;5549044;32;33597;-62
2023/07/24 00:58:49;;;;;;;10.32;6.65;;;;;;;24.09;72.18;100204.59;5548486;32;34450;-62
2023/07/24 01:01:52;;;;;;;11.10;6.60;;;;;;;24.22;70.83;100202.38;5549075;32;34387;-62
2023/07/24 01:04:54;;;;;;;7.35;6.12;;;;;;;24.13;71.67;100199.94;5548624;32;33803;-62
2023/07/24 01:07:56;;;;;;;8.35;5.80;;;;;;;24.10;71.63;100197.94;5548683;32;34353;-61
2023/07/24 01:11:06;;;;;;;8.05;5.72;;;;;;;24.05;71.62;100196.34;5548917;32;34439;-62
2023/07/24 01:14:31;;;;;;;10.32;5.95;;;;;;;23.99;71.78;100194.31;5548914;32;33716;-62
2023/07/24 01:17:38;;;;;;;10.57;6.12;;;;;;;24.00;71.65;100193.94;5551215;32;33664;-62
2023/07/24 01:20:48;;;;;;;9.15;6.20;;;;;;;23.98;71.74;100196.28;5551192;32;33432;-61
2023/07/24 01:23:57;;;;;;;10.90;5.72;;;;;;;23.88;71.84;100197.72;5551048;32;33720;-61
2023/07/24 01:26:59;;;;;;;13.82;6.30;;;;;;;23.87;72.08;100198.91;5550905;32;34433;-61
2023/07/24 01:30:02;;;;;;;8.18;5.95;;;;;;;23.83;72.29;100197.28;5549909;32;33666;-61
2023/07/24 01:33:05;;;;;;;7.53;5.65;;;;;;;23.86;72.24;100196.53;5550982;32;33711;-61
2023/07/24 01:36:08;;;;;;;7.55;6.03;;;;;;;23.92;71.83;100192.28;5550936;32;33846;-62
2023/07/24 01:39:11;;;;;;;7.60;5.87;;;;;;;23.91;71.83;100188.00;5551187;32;33947;-61
2023/07/24 01:42:15;;;;;;;7.65;5.82;;;;;;;23.80;72.19;100185.13;5550906;32;33916;-61
2023/07/24 01:45:17;;;;;;;8.70;5.60;;;;;;;23.85;72.11;100184.00;5550708;32;33651;-61
2023/07/24 01:48:20;;;;;;;9.05;6.37;;;;;;;23.73;72.63;100187.78;5550628;32;34468;-61
2023/07/24 01:51:22;;;;;;;8.85;5.80;;;;;;;23.68;72.85;100180.69;5549654;32;33753;-61
2023/07/24 01:54:25;;;;;;;8.05;5.40;;;;;;;23.73;72.64;100179.56;5550682;32;33461;-61
2023/07/24 01:57:27;;;;;;;8.75;5.78;;;;;;;23.69;73.01;100184.22;5550800;32;33632;-61
2023/07/24 02:00:30;;;;;;;10.82;6.32;;;;;;;23.68;73.20;100182.66;5550760;32;33653;-61
2023/07/24 02:03:32;;;;;;;9.93;6.05;;;;;;;23.55;73.85;100181.28;5550508;32;34308;-61
2023/07/24 02:06:35;;;;;;;8.68;5.97;;;;;;;23.50;73.98;100185.13;5550506;32;34309;-62
2023/07/24 02:09:37;;;;;;;7.87;6.40;;;;;;;23.50;74.18;100178.88;5550622;32;34431;-61
2023/07/24 02:12:40;;;;;;;8.88;6.45;;;;;;;23.53;73.94;100178.12;5550697;32;33653;-61
2023/07/24 02:15:42;;;;;;;8.02;5.78;;;;;;;23.63;73.71;100185.69;5550420;32;33849;-62
2023/07/24 02:18:46;;;;;;;7.72;6.10;;;;;;;23.43;74.53;100179.56;5550784;32;33361;-61
2023/07/24 02:21:49;;;;;;;7.95;6.37;;;;;;;23.47;74.34;100187.81;5550494;32;33687;-62
2023/07/24 02:24:51;;;;;;;8.40;5.75;;;;;;;23.52;73.96;100180.09;5550375;32;33685;-61
2023/07/24 02:27:53;;;;;;;7.95;6.12;;;;;;;23.47;74.20;100185.09;5549811;32;33852;-61
2023/07/24 02:30:59;;;;;;;9.10;5.97;;;;;;;23.60;73.69;100183.69;5550491;32;34384;-60
2023/07/24 02:34:01;;;;;;;8.23;6.05;;;;;;;23.63;73.65;100185.69;5550462;32;34039;-60
2023/07/24 02:37:03;;;;;;;9.80;5.90;;;;;;;23.67;73.44;100183.75;5550380;32;33761;-59
2023/07/24 02:40:06;;;;;;;8.40;6.32;;;;;;;23.70;73.35;100185.78;5550427;32;34459;-60
2023/07/24 02:43:09;;;;;;;7.20;5.70;;;;;;;23.75;73.17;100176.47;5550166;32;34091;-60
2023/07/24 02:46:13;;;;;;;8.25;5.85;;;;;;;23.71;73.41;100176.44;5550090;32;33761;-60
2023/07/24 02:49:17;;;;;;;10.60;6.03;;;;;;;23.67;73.75;100181.84;5550361;32;33775;-60
2023/07/24 02:52:19;;;;;;;9.07;6.22;;;;;;;23.59;74.34;100182.13;5550193;32;34489;-59
2023/07/24 02:55:22;;;;;;;11.73;5.80;;;;;;;23.53;74.64;100183.59;5550411;32;34378;-60
2023/07/24 02:58:24;;;;;;;8.45;6.65;;;;;;;23.51;74.87;100178.53;5550109;32;33695;-60
2023/07/24 03:01:26;;;;;;;8.68;6.62;;;;;;;23.58;74.57;100177.81;5550156;32;33783;-60
2023/07/24 03:04:29;;;;;;;7.05;6.10;;;;;;;23.58;74.62;100184.06;5549965;32;33731;-60
2023/07/24 03:07:32;;;;;;;10.32;6.50;;;;;;;23.59;74.65;100182.13;5549945;32;33797;-60
2023/07/24 03:10:34;;;;;;;8.32;6.32;;;;;;;23.60;74.63;100183.69;5550185;32;33622;-60
2023/07/24 03:13:36;;;;;;;8.05;6.25;;;;;;;23.48;75.34;100183.91;5550160;32;34335;-60
2023/07/24 03:16:39;;;;;;;9.63;6.60;;;;;;;23.53;75.38;100178.12;5550200;32;33305;-60
2023/07/24 03:19:41;;;;;;;9.75;6.60;;;;;;;23.48;75.59;100173.78;5550150;32;34376;-60
2023/07/24 03:22:44;;;;;;;9.13;6.20;;;;;;;23.36;76.31;100179.50;5550141;32;33294;-60
2023/07/24 03:25:47;;;;;;;10.05;6.72;;;;;;;23.39;76.25;100174.06;5549820;32;34172;-60
2023/07/24 03:28:49;;;;;;;9.23;6.75;;;;;;;23.44;75.95;100176.50;5549921;32;33735;-59
2023/07/24 03:31:52;;;;;;;7.85;6.05;;;;;;;23.49;75.81;100171.84;5549984;32;34180;-60
2023/07/24 03:34:54;;;;;;;8.80;6.50;;;;;;;23.39;76.28;100168.59;5550073;32;33751;-59
2023/07/24 03:37:56;;;;;;;13.55;6.47;;;;;;;23.36;76.54;100165.81;5548659;32;33755;-60
2023/07/24 03:41:00;;;;;;;7.55;6.15;;;;;;;23.24;77.19;100169.56;5549879;32;33811;-59
2023/07/24 03:44:04;;;;;;;8.27;6.57;;;;;;;23.31;77.17;100160.66;5549733;32;33739;-59
2023/07/24 03:47:07;;;;;;;8.05;6.00;;;;;;;23.23;77.53;100165.25;5549654;32;33737;-58
2023/07/24 03:50:09;;;;;;;8.55;6.32;;;;;;;23.18;77.86;100154.66;5549851;32;34371;-59
2023/07/24 03:53:12;;;;;;;10.35;7.15;;;;;;;23.17;78.22;100159.31;5550007;32;33683;-59
2023/07/24 03:56:14;;;;;;;8.60;6.93;;;;;;;23.18;78.23;100163.66;5549666;32;34406;-59
2023/07/24 03:59:16;;;;;;;8.35;6.12;;;;;;;23.23;78.18;100156.28;5549749;32;33870;-59
2023/07/24 04:02:19;;;;;;;12.00;6.47;;;;;;;23.20;78.44;100157.78;5549649;32;34376;-59
2023/07/24 04:05:21;;;;;;;9.70;7.30;;;;;;;23.21;78.38;100162.09;5549348;32;34459;-59
2023/07/24 04:08:23;;;;;;;10.32;6.75;;;;;;;23.22;77.73;100163.69;5548407;32;33906;-59
2023/07/24 04:11:26;;;;;;;11.60;7.62;;;;;;;23.23;77.59;100165.25;5549662;32;34413;-59
2023/07/24 04:14:28;;;;;;;14.10;7.30;;;;;;;23.29;77.06;100158.31;5549517;32;33948;-59
2023/07/24 04:17:32;;;;;;;10.02;7.12;;;;;;;23.37;76.43;100156.44;5549554;32;33643;-59
2023/07/24 04:20:34;;;;;;;12.07;7.37;;;;;;;23.36;76.81;100165.81;5549565;32;33827;-58
2023/07/24 04:23:37;;;;;;;8.18;6.78;;;;;;;23.31;76.73;100160.66;5549464;32;33427;-59
2023/07/24 04:26:39;;;;;;;17.58;8.18;;;;;;;23.37;76.24;100153.72;5549332;32;34046;-59
2023/07/24 04:29:42;;;;;;;11.02;6.93;;;;;;;23.37;76.45;100159.19;5549446;32;33660;-59
2023/07/24 04:32:44;;;;;;;10.95;7.70;;;;;;;23.26;77.27;100152.78;5549536;32;34304;-58
2023/07/24 04:35:49;;;;;;;11.02;7.82;;;;;;;23.28;77.17;100153.19;5549292;32;33668;-59
2023/07/24 04:38:52;;;;;;;11.80;8.05;;;;;;;23.32;76.69;100162.25;5549264;32;33486;-59
2023/07/24 04:41:54;;;;;;;10.50;8.23;;;;;;;23.35;76.65;100148.63;5549319;32;33596;-59
2023/07/24 04:44:56;;;;;;;11.30;7.97;;;;;;;23.40;76.30;100150.22;5549086;32;33808;-59
2023/07/24 04:47:59;;;;;;;12.50;7.80;;;;;;;23.42;76.48;100143.22;5548813;32;34395;-59
2023/07/24 04:51:01;;;;;;;10.90;8.10;;;;;;;23.41;76.58;100155.34;5548982;32;33951;-61
2023/07/24 04:54:04;;;;;;;10.75;8.25;;;;;;;23.34;77.26;100160.69;5549036;32;34840;-62
2023/07/24 04:57:06;;;;;;;9.48;7.80;;;;;;;23.32;77.33;100162.25;5547972;32;34320;-61
2023/07/24 05:00:09;;;;;;;10.75;7.87;;;;;;;23.38;77.02;100167.03;5548852;32;33693;-62
2023/07/24 05:03:11;;;;;;;12.25;8.85;;;;;;;23.42;77.05;100167.84;5549663;32;34356;-62
2023/07/24 05:06:13;;;;;;;11.02;8.73;;;;;;;23.48;76.48;100167.50;5568488;32;33626;-62
2023/07/24 05:09:16;;;;;;;8.98;8.05;;;;;;;23.52;76.52;100163.66;5568648;32;33792;-62
2023/07/24 05:12:18;;;;;;;13.95;8.20;;;;;;;23.60;76.28;100161.78;5568512;32;33844;-62
2023/07/24 05:15:20;;;;;;;10.85;8.93;;;;;;;23.62;76.45;100168.47;5568548;32;33715;-62
2023/07/24 05:18:23;;;;;;;10.13;8.20;;;;;;;23.65;76.95;100165.00;5568467;32;33909;-62
2023/07/24 05:21:25;;;;;;;12.63;8.50;;;;;;;23.78;76.85;100165.56;5568507;32;34140;-62
2023/07/24 05:24:27;;;;;;;14.55;8.05;;;;;;;23.85;76.81;100165.63;5568318;32;33585;-62
2023/07/24 05:27:30;;;;;;;10.10;8.90;;;;;;;23.86;76.37;100177.38;5568215;32;33671;-62
2023/07/24 05:30:33;;;;;;;16.95;8.48;;;;;;;24.05;75.49;100173.66;5568177;32;33712;-62
2023/07/24 05:33:35;;;;;;;13.48;9.20;;;;;;;24.11;75.29;100169.41;5567780;32;33683;-62
2023/07/24 05:36:37;;;;;;;10.38;8.85;;;;;;;24.15;74.60;100162.00;5550874;32;34679;-62
2023/07/24 05:39:40;;;;;;;12.07;8.80;;;;;;;24.36;73.52;100164.94;5548534;32;33617;-62
2023/07/24 05:42:43;;;;;;;13.75;9.05;;;;;;;24.40;73.63;100162.22;5548562;32;34051;-62
2023/07/24 05:45:45;;;;;;;9.30;7.78;;;;;;;24.41;74.04;100163.84;5548357;32;34445;-62
2023/07/24 05:48:48;;;;;;;11.27;9.20;;;;;;;24.63;76.42;100167.50;5548289;32;34375;-62
2023/07/24 05:51:52;;;;;;;10.57;8.10;;;;;;;24.69;73.57;100167.94;5548228;32;33622;-62
2023/07/24 05:54:54;;;;;;;10.05;7.05;;;;;;;24.83;75.92;100171.59;5548301;32;33731;-62
2023/07/24 05:57:57;;;;;;;11.73;9.60;;;;;;;24.89;75.18;100165.72;5547992;32;34329;-62
2023/07/24 06:01:00;;;;;;;9.25;7.78;;;;;;;24.88;73.25;100159.47;5548359;32;33572;-60
2023/07/24 06:04:02;;;;;;;12.88;8.35;;;;;;;24.90;74.36;100164.56;5550820;32;33751;-60
2023/07/24 06:07:05;;;;;;;12.75;8.65;;;;;;;25.08;73.51;100160.75;5550856;32;34552;-60
2023/07/24 06:10:08;;;;;;;14.60;9.13;;;;;;;25.14;73.34;100152.97;5564172;32;33635;-60
2023/07/24 06:13:11;;;;;;;25.40;10.63;;;;;;;25.24;73.10;100146.75;5570422;32;33917;-60
2023/07/24 06:16:14;;;;;;;14.02;9.07;;;;;;;25.31;72.14;100146.78;5568800;32;33625;-60
2023/07/24 06:19:17;;;;;;;16.48;11.35;;;;;;;25.35;71.51;100146.00;5569138;32;34367;-60
2023/07/24 06:22:19;;;;;;;13.77;9.10;;;;;;;25.41;70.59;100137.03;5569845;32;33716;-60
2023/07/24 06:25:21;;;;;;;16.70;9.43;;;;;;;25.44;72.47;100141.75;5570283;32;34327;-60
2023/07/24 06:28:24;;;;;;;13.50;10.13;;;;;;;25.60;73.03;100144.16;5569894;32;33417;-60
2023/07/24 06:31:26;;;;;;;14.80;9.30;;;;;;;25.66;70.81;100145.34;5570024;32;33758;-60
2023/07/24 06:34:29;;;;;;;22.13;9.35;;;;;;;25.61;71.72;100140.22;5569783;32;33586;-60
2023/07/24 06:37:31;;;;;;;10.95;7.55;;;;;;;25.62;72.17;100136.28;5569937;32;34359;-60
2023/07/24 06:40:34;;;;;;;11.85;9.38;;;;;;;25.69;75.16;100141.00;5569757;32;34394;-60
2023/07/24 06:43:36;;;;;;;11.60;8.05;;;;;;;25.77;72.33;100140.66;5570068;32;33856;-60
2023/07/24 06:46:38;;;;;;;14.23;7.30;;;;;;;25.83;72.83;100138.34;5569547;32;34216;-60
2023/07/24 06:49:40;;;;;;;12.02;8.32;;;;;;;26.06;72.59;100145.41;5569766;32;34344;-60
2023/07/24 06:52:43;;;;;;;11.23;8.30;;;;;;;26.14;72.21;100147.78;5569702;32;33648;-60
2023/07/24 06:55:45;;;;;;;10.90;7.32;;;;;;;26.11;72.21;100142.31;5569688;32;33783;-60
2023/07/24 06:58:48;;;;;;;9.55;8.00;;;;;;;26.23;72.51;100142.69;5569525;32;34133;-60
2023/07/24 07:01:50;;;;;;;10.70;7.62;;;;;;;26.34;72.21;100141.91;5569714;32;34153;-61
2023/07/24 07:04:52;;;;;;;10.63;7.40;;;;;;;26.41;72.66;100141.91;5569770;32;34077;-60
2023/07/24 07:07:54;;;;;;;14.77;8.07;;;;;;;26.52;72.02;100130.94;5569434;32;33795;-61
2023/07/24 07:10:58;;;;;;;10.80;6.37;;;;;;;26.58;71.93;100134.84;5569731;32;33686;-60
2023/07/24 07:14:00;;;;;;;11.77;8.80;;;;;;;26.55;71.90;100125.44;5569237;32;34097;-61
2023/07/24 07:17:03;;;;;;;11.18;7.25;;;;;;;26.66;71.06;100117.97;5569709;32;34281;-60
2023/07/24 07:20:06;;;;;;;9.40;7.22;;;;;;;26.74;71.28;100115.97;5569351;32;33841;-60
2023/07/24 07:23:09;;;;;;;9.38;7.70;;;;;;;26.78;70.63;100113.22;5568707;32;33671;-60
2023/07/24 07:26:11;;;;;;;13.82;7.68;;;;;;;26.82;70.48;100109.28;5549835;32;33733;-60
2023/07/24 07:29:13;;;;;;;12.63;7.62;;;;;;;26.86;71.05;100103.78;5556750;32;33710;-61
2023/07/24 07:32:16;;;;;;;14.40;7.37;;;;;;;26.86;70.92;100095.53;5569669;32;33711;-60
2023/07/24 07:35:18;;;;;;;13.48;8.00;;;;;;;26.98;69.60;100095.06;5569554;32;33735;-60
2023/07/24 07:38:22;;;;;;;11.48;8.27;;;;;;;27.02;69.70;100098.63;5566124;32;33337;-60
2023/07/24 07:41:25;;;;;;;11.25;8.32;;;;;;;27.15;68.55;100091.50;5550004;32;33702;-60
2023/07/24 07:44:27;;;;;;;11.65;7.72;;;;;;;27.10;69.16;100088.34;5549825;32;34314;-60
2023/07/24 07:47:29;;;;;;;11.32;7.25;;;;;;;27.20;69.10;100086.78;5550112;32;34325;-61
2023/07/24 07:50:32;;;;;;;15.82;9.02;;;;;;;27.16;69.54;100084.03;5549824;32;33644;-60
2023/07/24 07:53:34;;;;;;;11.00;8.25;;;;;;;27.20;68.19;100081.25;5550241;32;33616;-60
2023/07/24 07:56:37;;;;;;;11.25;7.20;;;;;;;27.29;68.26;100078.88;5549752;32;33705;-60
2023/07/24 07:59:39;;;;;;;12.73;8.80;;;;;;;27.30;69.15;100080.44;5549833;32;33703;-60
2023/07/24 08:02:41;;;;;;;12.45;7.32;;;;;;;27.28;68.68;100089.06;5549498;32;34011;-61
2023/07/24 08:05:45;;;;;;;11.38;7.97;;;;;;;27.41;68.50;100089.41;5549745;32;33796;-60
2023/07/24 08:08:47;;;;;;;11.07;8.07;;;;;;;27.50;67.85;100075.97;5549835;32;33769;-60
2023/07/24 08:11:51;;;;;;;14.43;8.27;;;;;;;27.58;66.44;100077.53;5549746;32;34359;-60
2023/07/24 08:14:53;;;;;;;15.43;8.52;;;;;;;27.59;67.74;100081.06;5549665;32;33679;-60
2023/07/24 08:17:55;;;;;;;11.77;8.38;;;;;;;27.69;65.11;100077.44;5549681;32;33822;-61
2023/07/24 08:20:58;;;;;;;9.43;7.55;;;;;;;27.64;65.68;100064.88;5549717;32;33662;-61
2023/07/24 08:24:02;;;;;;;15.90;8.60;;;;;;;27.69;66.75;100074.69;5548723;32;34201;-61
2023/07/24 08:27:04;;;;;;;14.55;8.02;;;;;;;27.68;66.04;100075.84;5549557;32;33655;-61
2023/07/24 08:30:07;;;;;;;10.50;8.10;;;;;;;27.71;66.00;100066.78;5549243;32;33731;-61
2023/07/24 08:33:09;;;;;;;13.80;8.35;;;;;;;27.71;65.14;100072.28;5549163;32;34324;-60
2023/07/24 08:36:12;;;;;;;12.35;8.70;;;;;;;27.71;65.36;100082.53;5549170;32;33849;-60
2023/07/24 08:39:14;;;;;;;11.70;8.40;;;;;;;27.64;65.15;100070.38;5548964;32;34545;-60
2023/07/24 08:42:17;;;;;;;14.48;8.38;;;;;;;27.76;64.79;100071.91;5549114;32;34371;-60
2023/07/24 08:45:20;;;;;;;10.73;7.80;;;;;;;27.77;63.75;100073.47;5548957;32;33770;-60
2023/07/24 08:48:23;;;;;;;12.68;7.12;;;;;;;27.90;64.63;100056.47;5548639;32;34431;-60
2023/07/24 08:51:26;;;;;;;15.18;8.90;;;;;;;27.92;63.60;100056.84;5548888;32;33477;-60
2023/07/24 08:54:30;;;;;;;14.93;8.80;;;;;;;27.91;62.46;100055.25;5547851;32;33766;-60
2023/07/24 08:57:32;;;;;;;14.07;7.70;;;;;;;28.03;60.94;100050.03;5548431;32;34342;-61
2023/07/24 09:00:35;;;;;;;15.13;10.65;;;;;;;28.15;59.67;100037.75;5548491;32;34355;-60
2023/07/24 09:03:37;;;;;;;13.98;8.38;;;;;;;28.18;60.03;100039.69;5548407;32;33507;-60
2023/07/24 09:06:41;;;;;;;12.57;7.55;;;;;;;28.22;60.01;100050.69;5548919;32;34348;-60
2023/07/24 09:09:43;;;;;;;12.90;7.35;;;;;;;28.26;59.13;100032.91;5548560;32;34433;-60
2023/07/24 09:12:46;;;;;;;17.80;9.38;;;;;;;28.32;59.89;100028.50;5548778;32;33646;-61
2023/07/24 09:15:48;;;;;;;14.95;9.25;;;;;;;28.36;57.21;100033.22;5548544;32;33616;-61
2023/07/24 09:18:52;;;;;;;12.43;8.50;;;;;;;28.42;57.06;100031.59;5548668;32;33731;-60
2023/07/24 09:22:17;;;;;;;12.20;8.10;;;;;;;28.48;58.19;100027.22;5548321;32;33685;-60
2023/07/24 09:25:34;;;;;;;14.37;8.93;;;;;;;28.50;56.46;100025.59;5548722;32;34569;-60
2023/07/24 09:28:37;;;;;;;11.80;7.37;;;;;;;28.59;55.16;100014.06;5548489;32;33682;-60
2023/07/24 09:31:40;;;;;;;13.60;7.87;;;;;;;28.56;58.09;100009.38;5548424;32;33597;-60
2023/07/24 09:34:42;;;;;;;13.30;8.40;;;;;;;28.54;54.70;100012.56;5548524;32;34200;-60
2023/07/24 09:37:45;;;;;;;12.88;7.85;;;;;;;28.59;54.42;100003.03;5549469;32;34298;-60
2023/07/24 09:40:50;;;;;;;14.98;8.55;;;;;;;28.70;54.08;100011.19;5550957;32;33752;-60
2023/07/24 09:43:58;;;;;;;15.17;9.03;;;;;;;28.73;53.63;99999.31;5549530;32;34467;-60
2023/07/24 09:47:01;;;;;;;12.37;7.93;;;;;;;28.88;53.73;100005.47;5548429;32;33714;-61
2023/07/24 09:50:24;;;;;;;14.52;9.13;;;;;;;29.10;52.81;99989.41;5546659;32;34386;-61
2023/07/24 09:53:32;;;;;;;12.18;9.30;;;;;;;29.16;50.68;99988.53;5547414;32;33858;-60
2023/07/24 09:56:36;;;;;;;15.70;9.15;;;;;;;29.18;46.57;99983.38;5549594;32;33655;-61
2023/07/24 09:59:56;;;;;;;13.05;8.95;;;;;;;29.21;46.44;99974.25;5548408;32;33728;-60
2023/07/24 10:02:58;;;;;;;15.32;9.45;;;;;;;29.24;47.16;99981.72;5551040;32;33674;-61
2023/07/24 10:06:02;;;;;;;11.27;8.75;;;;;;;29.31;46.92;99972.53;5550783;32;33704;-61
2023/07/24 10:09:06;;;;;;;15.48;9.32;;;;;;;29.42;48.87;99972.38;5550752;32;33850;-61
2023/07/24 10:12:09;;;;;;;13.87;10.33;;;;;;;29.36;48.49;99974.03;5550838;32;33576;-60
2023/07/24 10:15:12;;;;;;;14.18;9.52;;;;;;;29.38;46.09;99964.16;5550931;32;33420;-60
2023/07/24 10:18:19;;;;;;;14.00;8.35;;;;;;;29.45;48.57;99958.50;5550812;32;33794;-60
2023/07/24 10:21:28;;;;;;;16.87;10.25;;;;;;;29.61;50.54;99963.41;5550904;32;34359;-60
2023/07/24 10:24:33;;;;;;;14.95;10.10;;;;;;;29.60;46.18;99948.03;5550807;32;33706;-60
2023/07/24 10:27:44;;;;;;;11.82;8.32;;;;;;;29.52;46.07;99948.53;5550732;32;33630;-61
2023/07/24 10:30:56;;;;;;;16.15;11.50;;;;;;;29.70;49.75;99949.03;5550893;32;33795;-61
2023/07/24 10:34:05;;;;;;;15.15;10.20;;;;;;;29.72;44.53;99947.44;5550744;32;33775;-60
2023/07/24 10:37:09;;;;;;;16.77;9.70;;;;;;;29.83;44.66;99932.63;5550747;32;33733;-60
2023/07/24 10:40:21;;;;;;;15.70;9.57;;;;;;;29.91;45.86;99926.56;5550564;32;33666;-60
2023/07/24 10:43:24;;;;;;;15.73;9.70;;;;;;;29.86;45.73;99927.03;5550753;32;33728;-60
2023/07/24 10:46:38;;;;;;;13.62;9.27;;;;;;;29.90;45.92;99924.22;5550603;32;34457;-61
2023/07/24 10:49:49;;;;;;;12.57;9.98;;;;;;;29.86;44.51;99917.97;5550406;32;34449;-61
2023/07/24 10:52:51;;;;;;;14.85;8.82;;;;;;;29.77;44.14;99918.56;5550714;32;34315;-61
2023/07/24 10:55:53;;;;;;;14.48;10.15;;;;;;;29.88;45.78;99907.28;5550448;32;33752;-61
2023/07/24 10:58:56;;;;;;;15.63;9.48;;;;;;;29.79;44.32;99916.13;5550414;32;33752;-60
2023/07/24 11:01:59;;;;;;;15.05;10.93;;;;;;;29.83;45.77;99908.53;5550498;32;34449;-61
2023/07/24 11:05:02;;;;;;;13.55;9.50;;;;;;;29.87;44.10;99892.69;5550540;32;33681;-60
2023/07/24 11:08:15;;;;;;;14.82;9.10;;;;;;;30.05;44.04;99886.03;5550437;32;33773;-60
2023/07/24 11:11:17;;;;;;;14.10;9.73;;;;;;;30.16;44.33;99883.84;5550416;32;33720;-60
2023/07/24 11:14:20;;;;;;;12.23;9.32;;;;;;;30.23;43.13;99869.91;5550422;32;34345;-60
2023/07/24 11:17:34;;;;;;;14.60;9.13;;;;;;;30.30;42.10;99871.72;5550418;32;33703;-60
2023/07/24 11:20:46;;;;;;;10.90;8.90;;;;;;;30.41;43.78;99875.06;5550338;32;33638;-60
2023/07/24 11:23:50;;;;;;;13.15;9.70;;;;;;;30.42;43.66;99871.84;5550302;32;33675;-60
2023/07/24 11:26:53;;;;;;;12.95;9.38;;;;;;;30.34;44.40;99872.44;5550292;32;34356;-60
2023/07/24 11:29:55;;;;;;;12.30;9.38;;;;;;;30.43;46.36;99856.84;5550116;32;34454;-60
2023/07/24 11:33:00;;;;;;;15.70;9.35;;;;;;;30.52;44.71;99839.66;5550310;32;34224;-60
2023/07/24 11:36:03;;;;;;;13.93;9.15;;;;;;;30.58;44.92;99839.91;5550188;32;34291;-61
2023/07/24 11:39:06;;;;;;;15.13;8.70;;;;;;;30.62;46.11;99829.53;5550141;32;34350;-61
2023/07/24 11:42:08;;;;;;;14.65;8.20;;;;;;;30.57;44.56;99817.03;5550120;32;34253;-60
2023/07/24 11:45:11;;;;;;;12.68;8.75;;;;;;;30.61;43.74;99806.62;5550170;32;33624;-61
2023/07/24 11:48:14;;;;;;;13.30;8.85;;;;;;;30.73;44.27;99818.22;5550029;32;34391;-61
2023/07/24 11:51:16;;;;;;;16.10;9.43;;;;;;;30.86;43.64;99805.28;5550249;32;33585;-61
2023/07/24 11:54:18;;;;;;;11.30;8.02;;;;;;;30.80;41.59;99801.50;5550004;32;34407;-61
2023/07/24 11:57:21;;;;;;;13.10;8.65;;;;;;;30.86;43.99;99791.44;5549883;32;34318;-60
2023/07/24 12:00:23;;;;;;;15.30;8.90;;;;;;;30.79;41.25;99780.56;5548631;32;34317;-61
2023/07/24 12:03:27;;;;;;;15.43;8.73;;;;;;;30.81;41.54;99783.69;5549747;32;33599;-60
2023/07/24 12:06:31;;;;;;;15.03;8.00;;;;;;;30.87;42.55;99779.97;5549819;32;33664;-60
2023/07/24 12:09:36;;;;;;;16.85;9.93;;;;;;;30.92;43.40;99780.63;5549983;32;34250;-60
2023/07/24 12:12:45;;;;;;;14.20;8.40;;;;;;;30.83;41.53;99770.97;5548643;32;32921;-61
2023/07/24 12:15:49;;;;;;;14.80;9.27;;;;;;;30.93;43.12;99768.34;5549594;32;34096;-61
2023/07/24 12:18:51;;;;;;;13.02;9.50;;;;;;;31.05;43.22;99767.66;5549834;32;34307;-61
2023/07/24 12:21:54;;;;;;;12.37;8.95;;;;;;;31.07;42.50;99754.94;5549676;32;33640;-61
2023/07/24 12:24:56;;;;;;;12.57;8.35;;;;;;;31.11;43.01;99754.84;5549597;32;34348;-60
2023/07/24 12:27:59;;;;;;;15.57;8.80;;;;;;;31.17;43.66;99761.41;5549692;32;34050;-61
2023/07/24 12:31:02;;;;;;;12.77;8.20;;;;;;;31.15;43.88;99754.75;5548074;32;33643;-61
2023/07/24 12:34:04;;;;;;;13.38;8.57;;;;;;;31.04;41.66;99746.72;5549472;32;34450;-60
2023/07/24 12:37:07;;;;;;;13.07;8.90;;;;;;;30.99;42.25;99736.19;5549253;32;34418;-61
2023/07/24 12:40:09;;;;;;;14.93;7.72;;;;;;;30.99;42.05;99734.19;5549345;32;33732;-61
2023/07/24 12:43:12;;;;;;;13.15;8.27;;;;;;;31.25;42.06;99718.47;5549409;32;33669;-60
2023/07/24 12:46:14;;;;;;;10.95;8.13;;;;;;;31.44;42.00;99716.00;5549273;32;34415;-61
2023/07/24 12:49:17;;;;;;;11.20;8.48;;;;;;;31.38;42.73;99710.22;5549431;32;33681;-61
2023/07/24 12:52:19;;;;;;;13.95;7.70;;;;;;;31.46;42.31;99708.81;5549045;32;34499;-61
2023/07/24 12:55:21;;;;;;;14.20;8.40;;;;;;;31.54;43.46;99709.38;5547311;32;33739;-61
2023/07/24 12:58:24;;;;;;;11.27;7.93;;;;;;;31.57;43.20;99705.75;5545829;32;33617;-61
2023/07/24 13:01:28;;;;;;;13.98;8.15;;;;;;;31.51;43.34;99702.72;5545214;32;34342;-61
2023/07/24 13:04:31;;;;;;;11.82;8.05;;;;;;;31.59;40.55;99703.31;5545821;32;33768;-62
2023/07/24 13:07:33;;;;;;;12.13;8.57;;;;;;;31.78;40.83;99694.00;5548033;32;34303;-63
2023/07/24 13:10:36;;;;;;;10.82;8.82;;;;;;;31.59;41.60;99693.00;5547962;32;33273;-63
2023/07/24 13:13:38;;;;;;;10.90;8.13;;;;;;;31.63;42.54;99683.81;5548960;32;34180;-63
2023/07/24 13:16:40;;;;;;;14.23;8.43;;;;;;;31.67;42.77;99676.94;5547731;32;34140;-62
2023/07/24 13:19:43;;;;;;;14.38;9.38;;;;;;;31.79;42.08;99683.72;5547367;32;33719;-63
2023/07/24 13:22:46;;;;;;;14.80;9.70;;;;;;;31.65;42.63;99686.91;5548773;32;33688;-63
2023/07/24 13:25:50;;;;;;;18.55;9.82;;;;;;;31.75;41.82;99681.03;5547896;32;33632;-63
2023/07/24 13:28:54;;;;;;;17.23;9.23;;;;;;;31.75;41.32;99667.19;5548722;32;33592;-63
2023/07/24 13:31:56;;;;;;;14.50;9.48;;;;;;;31.80;41.71;99657.56;5547365;32;33667;-63
2023/07/24 13:34:59;;;;;;;16.17;10.50;;;;;;;31.73;42.77;99652.25;5548590;32;33777;-63
2023/07/24 13:38:02;;;;;;;18.95;9.88;;;;;;;31.75;41.73;99644.25;5548722;32;33770;-63
